sensor_id;sensor_type;location;lat;lon;timestamp;temperature;humidity
26954;DHT22;14508;50.924;11.600;2024-01-25T00:00:33;9.20;91.00
26954;DHT22;14508;50.924;11.600;2024-01-25T00:03:00;9.10;90.70
26954;DHT22;14508;50.924;11.600;2024-01-25T00:05:28;9.10;90.80
26954;DHT22;14508;50.924;11.600;2024-01-25T00:07:58;9.10;90.60
26954;DHT22;14508;50.924;11.600;2024-01-25T00:10:26;9.10;90.60
26954;DHT22;14508;50.924;11.600;2024-01-25T00:12:54;9.20;90.30
26954;DHT22;14508;50.924;11.600;2024-01-25T00:15:22;9.10;90.30
26954;DHT22;14508;50.924;11.600;2024-01-25T00:17:50;9.10;89.80
26954;DHT22;14508;50.924;11.600;2024-01-25T00:20:18;9.10;90.00
26954;DHT22;14508;50.924;11.600;2024-01-25T00:22:46;9.10;90.10
26954;DHT22;14508;50.924;11.600;2024-01-25T00:25:15;9.10;90.20
26954;DHT22;14508;50.924;11.600;2024-01-25T00:27:43;9.10;90.20
26954;DHT22;14508;50.924;11.600;2024-01-25T00:30:12;9.10;90.40
26954;DHT22;14508;50.924;11.600;2024-01-25T00:32:40;9.00;90.70
26954;DHT22;14508;50.924;11.600;2024-01-25T00:35:09;8.90;91.10
26954;DHT22;14508;50.924;11.600;2024-01-25T00:37:40;9.00;91.40
26954;DHT22;14508;50.924;11.600;2024-01-25T00:40:09;8.90;91.70
26954;DHT22;14508;50.924;11.600;2024-01-25T00:42:42;8.90;92.00
26954;DHT22;14508;50.924;11.600;2024-01-25T00:45:11;8.80;92.10
26954;DHT22;14508;50.924;11.600;2024-01-25T00:47:39;8.80;92.30
26954;DHT22;14508;50.924;11.600;2024-01-25T00:50:07;8.70;92.60
26954;DHT22;14508;50.924;11.600;2024-01-25T00:52:36;8.70;93.00
26954;DHT22;14508;50.924;11.600;2024-01-25T00:55:06;8.60;93.30
26954;DHT22;14508;50.924;11.600;2024-01-25T00:57:35;8.60;93.60
26954;DHT22;14508;50.924;11.600;2024-01-25T01:00:06;8.50;94.00
26954;DHT22;14508;50.924;11.600;2024-01-25T01:02:38;8.50;94.60
26954;DHT22;14508;50.924;11.600;2024-01-25T01:05:08;8.40;94.70
26954;DHT22;14508;50.924;11.600;2024-01-25T01:07:36;8.40;95.30
26954;DHT22;14508;50.924;11.600;2024-01-25T01:10:06;8.30;95.50
26954;DHT22;14508;50.924;11.600;2024-01-25T01:12:35;8.30;95.80
26954;DHT22;14508;50.924;11.600;2024-01-25T01:15:06;8.30;96.10
26954;DHT22;14508;50.924;11.600;2024-01-25T01:17:34;8.40;96.20
26954;DHT22;14508;50.924;11.600;2024-01-25T01:20:02;8.40;96.00
26954;DHT22;14508;50.924;11.600;2024-01-25T01:22:30;8.30;96.30
26954;DHT22;14508;50.924;11.600;2024-01-25T01:24:57;8.40;96.20
26954;DHT22;14508;50.924;11.600;2024-01-25T01:27:25;8.30;96.50
26954;DHT22;14508;50.924;11.600;2024-01-25T01:29:53;8.30;96.40
26954;DHT22;14508;50.924;11.600;2024-01-25T01:32:23;8.20;96.40
26954;DHT22;14508;50.924;11.600;2024-01-25T01:34:50;8.20;96.90
26954;DHT22;14508;50.924;11.600;2024-01-25T01:37:19;8.10;97.30
26954;DHT22;14508;50.924;11.600;2024-01-25T01:39:46;8.00;97.40
26954;DHT22;14508;50.924;11.600;2024-01-25T01:42:14;7.90;97.80
26954;DHT22;14508;50.924;11.600;2024-01-25T01:44:43;7.80;98.20
26954;DHT22;14508;50.924;11.600;2024-01-25T01:47:11;7.70;98.80
26954;DHT22;14508;50.924;11.600;2024-01-25T01:49:40;7.80;99.40
26954;DHT22;14508;50.924;11.600;2024-01-25T01:52:09;7.70;99.70
26954;DHT22;14508;50.924;11.600;2024-01-25T01:54:37;7.70;99.90
26954;DHT22;14508;50.924;11.600;2024-01-25T01:57:07;7.60;99.90
26954;DHT22;14508;50.924;11.600;2024-01-25T01:59:35;7.70;99.90
26954;DHT22;14508;50.924;11.600;2024-01-25T02:02:03;7.60;99.90
26954;DHT22;14508;50.924;11.600;2024-01-25T02:04:32;7.60;99.90
26954;DHT22;14508;50.924;11.600;2024-01-25T02:07:02;7.60;99.90
26954;DHT22;14508;50.924;11.600;2024-01-25T02:09:30;7.70;99.90
26954;DHT22;14508;50.924;11.600;2024-01-25T02:11:59;7.70;99.90
26954;DHT22;14508;50.924;11.600;2024-01-25T02:14:28;7.70;99.90
26954;DHT22;14508;50.924;11.600;2024-01-25T02:16:56;7.70;99.90
26954;DHT22;14508;50.924;11.600;2024-01-25T02:19:24;7.70;99.90
26954;DHT22;14508;50.924;11.600;2024-01-25T02:21:54;7.70;99.90
26954;DHT22;14508;50.924;11.600;2024-01-25T02:24:25;7.70;99.90
26954;DHT22;14508;50.924;11.600;2024-01-25T02:26:53;7.70;99.90
26954;DHT22;14508;50.924;11.600;2024-01-25T02:29:21;7.70;99.90
26954;DHT22;14508;50.924;11.600;2024-01-25T02:31:49;7.70;99.90
26954;DHT22;14508;50.924;11.600;2024-01-25T02:34:17;7.70;99.90
26954;DHT22;14508;50.924;11.600;2024-01-25T02:36:45;7.80;99.90
26954;DHT22;14508;50.924;11.600;2024-01-25T02:39:13;7.90;99.90
26954;DHT22;14508;50.924;11.600;2024-01-25T02:41:42;8.00;99.90
26954;DHT22;14508;50.924;11.600;2024-01-25T02:44:11;7.90;99.90
26954;DHT22;14508;50.924;11.600;2024-01-25T02:46:39;8.00;99.90
26954;DHT22;14508;50.924;11.600;2024-01-25T02:49:07;7.90;99.90
26954;DHT22;14508;50.924;11.600;2024-01-25T02:51:36;7.90;99.90
26954;DHT22;14508;50.924;11.600;2024-01-25T02:54:03;7.80;99.90
26954;DHT22;14508;50.924;11.600;2024-01-25T02:56:31;7.80;99.90
26954;DHT22;14508;50.924;11.600;2024-01-25T02:59:03;7.70;99.90
26954;DHT22;14508;50.924;11.600;2024-01-25T03:01:38;7.70;99.90
26954;DHT22;14508;50.924;11.600;2024-01-25T03:04:06;7.70;99.90
26954;DHT22;14508;50.924;11.600;2024-01-25T03:06:34;7.70;99.90
26954;DHT22;14508;50.924;11.600;2024-01-25T03:09:02;7.70;99.90
26954;DHT22;14508;50.924;11.600;2024-01-25T03:11:31;7.60;99.90
26954;DHT22;14508;50.924;11.600;2024-01-25T03:14:00;7.60;99.90
26954;DHT22;14508;50.924;11.600;2024-01-25T03:16:30;7.60;99.90
26954;DHT22;14508;50.924;11.600;2024-01-25T03:18:58;7.60;99.90
26954;DHT22;14508;50.924;11.600;2024-01-25T03:21:26;7.70;99.90
26954;DHT22;14508;50.924;11.600;2024-01-25T03:23:54;7.60;99.90
26954;DHT22;14508;50.924;11.600;2024-01-25T03:26:22;7.60;99.90
26954;DHT22;14508;50.924;11.600;2024-01-25T03:28:50;7.60;99.90
26954;DHT22;14508;50.924;11.600;2024-01-25T03:31:18;7.70;99.90
26954;DHT22;14508;50.924;11.600;2024-01-25T03:33:47;7.70;99.90
26954;DHT22;14508;50.924;11.600;2024-01-25T03:36:16;7.70;99.90
26954;DHT22;14508;50.924;11.600;2024-01-25T03:38:44;7.70;99.90
26954;DHT22;14508;50.924;11.600;2024-01-25T03:41:13;7.80;99.90
26954;DHT22;14508;50.924;11.600;2024-01-25T03:43:41;7.90;99.90
26954;DHT22;14508;50.924;11.600;2024-01-25T03:46:10;7.90;99.90
26954;DHT22;14508;50.924;11.600;2024-01-25T03:48:39;8.00;99.90
26954;DHT22;14508;50.924;11.600;2024-01-25T03:51:08;8.00;99.90
26954;DHT22;14508;50.924;11.600;2024-01-25T03:53:36;8.00;99.90
26954;DHT22;14508;50.924;11.600;2024-01-25T03:56:10;8.00;99.90
26954;DHT22;14508;50.924;11.600;2024-01-25T03:58:39;8.00;99.90
26954;DHT22;14508;50.924;11.600;2024-01-25T04:01:07;8.00;99.90
26954;DHT22;14508;50.924;11.600;2024-01-25T04:03:36;8.10;99.90
26954;DHT22;14508;50.924;11.600;2024-01-25T04:06:04;8.00;99.90
26954;DHT22;14508;50.924;11.600;2024-01-25T04:08:34;8.00;99.90
26954;DHT22;14508;50.924;11.600;2024-01-25T04:11:01;8.00;99.90
26954;DHT22;14508;50.924;11.600;2024-01-25T04:13:29;8.00;99.90
26954;DHT22;14508;50.924;11.600;2024-01-25T04:15:57;7.90;99.90
26954;DHT22;14508;50.924;11.600;2024-01-25T04:18:25;7.90;99.90
26954;DHT22;14508;50.924;11.600;2024-01-25T04:20:53;7.80;99.90
26954;DHT22;14508;50.924;11.600;2024-01-25T04:23:21;7.70;99.90
26954;DHT22;14508;50.924;11.600;2024-01-25T04:25:50;7.70;99.90
26954;DHT22;14508;50.924;11.600;2024-01-25T04:28:18;7.60;99.90
26954;DHT22;14508;50.924;11.600;2024-01-25T04:30:46;7.50;99.90
26954;DHT22;14508;50.924;11.600;2024-01-25T04:33:14;7.50;99.90
26954;DHT22;14508;50.924;11.600;2024-01-25T04:35:43;7.40;99.90
26954;DHT22;14508;50.924;11.600;2024-01-25T04:38:12;7.40;99.90
26954;DHT22;14508;50.924;11.600;2024-01-25T04:40:40;7.40;99.90
26954;DHT22;14508;50.924;11.600;2024-01-25T04:43:10;7.30;99.90
26954;DHT22;14508;50.924;11.600;2024-01-25T04:45:39;7.30;99.90
26954;DHT22;14508;50.924;11.600;2024-01-25T04:48:07;7.30;99.90
26954;DHT22;14508;50.924;11.600;2024-01-25T04:50:35;7.20;99.90
26954;DHT22;14508;50.924;11.600;2024-01-25T04:53:03;7.20;99.90
26954;DHT22;14508;50.924;11.600;2024-01-25T04:55:31;7.10;99.90
26954;DHT22;14508;50.924;11.600;2024-01-25T04:57:59;7.00;99.90
26954;DHT22;14508;50.924;11.600;2024-01-25T05:00:28;7.00;99.90
26954;DHT22;14508;50.924;11.600;2024-01-25T05:02:56;7.10;99.90
26954;DHT22;14508;50.924;11.600;2024-01-25T05:05:24;7.00;99.90
26954;DHT22;14508;50.924;11.600;2024-01-25T05:07:52;7.00;99.90
26954;DHT22;14508;50.924;11.600;2024-01-25T05:10:20;7.00;99.90
26954;DHT22;14508;50.924;11.600;2024-01-25T05:12:49;7.10;99.90
26954;DHT22;14508;50.924;11.600;2024-01-25T05:15:17;7.10;99.90
26954;DHT22;14508;50.924;11.600;2024-01-25T05:17:47;7.10;99.90
26954;DHT22;14508;50.924;11.600;2024-01-25T05:20:15;7.10;99.90
26954;DHT22;14508;50.924;11.600;2024-01-25T05:22:45;7.20;99.90
26954;DHT22;14508;50.924;11.600;2024-01-25T05:25:13;7.20;99.90
26954;DHT22;14508;50.924;11.600;2024-01-25T05:27:41;7.10;99.90
26954;DHT22;14508;50.924;11.600;2024-01-25T05:30:09;7.20;99.90
26954;DHT22;14508;50.924;11.600;2024-01-25T05:32:37;7.20;99.90
26954;DHT22;14508;50.924;11.600;2024-01-25T05:35:08;7.30;99.90
26954;DHT22;14508;50.924;11.600;2024-01-25T05:37:36;7.20;99.90
26954;DHT22;14508;50.924;11.600;2024-01-25T05:40:05;7.20;99.90
26954;DHT22;14508;50.924;11.600;2024-01-25T05:42:33;7.20;99.90
26954;DHT22;14508;50.924;11.600;2024-01-25T05:45:01;7.20;99.90
26954;DHT22;14508;50.924;11.600;2024-01-25T05:47:30;7.20;99.90
26954;DHT22;14508;50.924;11.600;2024-01-25T05:49:58;7.20;99.90
26954;DHT22;14508;50.924;11.600;2024-01-25T05:52:28;7.20;99.90
26954;DHT22;14508;50.924;11.600;2024-01-25T05:54:56;7.20;99.90
26954;DHT22;14508;50.924;11.600;2024-01-25T05:57:24;7.30;99.90
26954;DHT22;14508;50.924;11.600;2024-01-25T05:59:52;7.30;99.90
26954;DHT22;14508;50.924;11.600;2024-01-25T06:02:19;7.30;99.90
26954;DHT22;14508;50.924;11.600;2024-01-25T06:04:47;7.30;99.90
26954;DHT22;14508;50.924;11.600;2024-01-25T06:07:16;7.40;99.90
26954;DHT22;14508;50.924;11.600;2024-01-25T06:09:45;7.40;99.90
26954;DHT22;14508;50.924;11.600;2024-01-25T06:12:14;7.40;99.90
26954;DHT22;14508;50.924;11.600;2024-01-25T06:14:41;7.40;99.90
26954;DHT22;14508;50.924;11.600;2024-01-25T06:17:09;7.40;99.90
26954;DHT22;14508;50.924;11.600;2024-01-25T06:19:37;7.40;99.90
26954;DHT22;14508;50.924;11.600;2024-01-25T06:22:05;7.50;99.90
26954;DHT22;14508;50.924;11.600;2024-01-25T06:24:33;7.50;99.90
26954;DHT22;14508;50.924;11.600;2024-01-25T06:27:04;7.50;99.90
26954;DHT22;14508;50.924;11.600;2024-01-25T06:29:32;7.60;99.90
26954;DHT22;14508;50.924;11.600;2024-01-25T06:31:59;7.70;99.90
26954;DHT22;14508;50.924;11.600;2024-01-25T06:34:36;7.70;99.90
26954;DHT22;14508;50.924;11.600;2024-01-25T06:37:04;7.70;99.90
26954;DHT22;14508;50.924;11.600;2024-01-25T06:39:32;7.70;99.30
26954;DHT22;14508;50.924;11.600;2024-01-25T06:42:01;7.70;99.00
26954;DHT22;14508;50.924;11.600;2024-01-25T06:44:30;7.80;98.40
26954;DHT22;14508;50.924;11.600;2024-01-25T06:46:58;7.80;98.40
26954;DHT22;14508;50.924;11.600;2024-01-25T06:49:26;7.80;97.90
26954;DHT22;14508;50.924;11.600;2024-01-25T06:51:54;7.80;97.60
26954;DHT22;14508;50.924;11.600;2024-01-25T06:54:22;7.80;97.40
26954;DHT22;14508;50.924;11.600;2024-01-25T06:56:50;7.80;97.60
26954;DHT22;14508;50.924;11.600;2024-01-25T06:59:18;7.80;97.40
26954;DHT22;14508;50.924;11.600;2024-01-25T07:01:48;7.80;97.40
26954;DHT22;14508;50.924;11.600;2024-01-25T07:04:16;7.80;97.10
26954;DHT22;14508;50.924;11.600;2024-01-25T07:06:44;7.80;97.30
26954;DHT22;14508;50.924;11.600;2024-01-25T07:09:13;7.90;97.20
26954;DHT22;14508;50.924;11.600;2024-01-25T07:11:41;7.90;96.70
26954;DHT22;14508;50.924;11.600;2024-01-25T07:14:09;7.90;96.30
26954;DHT22;14508;50.924;11.600;2024-01-25T07:16:37;7.90;95.90
26954;DHT22;14508;50.924;11.600;2024-01-25T07:19:07;7.90;95.90
26954;DHT22;14508;50.924;11.600;2024-01-25T07:21:35;8.00;95.70
26954;DHT22;14508;50.924;11.600;2024-01-25T07:24:04;7.90;95.60
26954;DHT22;14508;50.924;11.600;2024-01-25T07:26:32;7.90;94.90
26954;DHT22;14508;50.924;11.600;2024-01-25T07:29:00;7.90;94.70
26954;DHT22;14508;50.924;11.600;2024-01-25T07:31:28;7.90;94.60
26954;DHT22;14508;50.924;11.600;2024-01-25T07:33:56;7.90;94.40
26954;DHT22;14508;50.924;11.600;2024-01-25T07:36:25;7.90;94.60
26954;DHT22;14508;50.924;11.600;2024-01-25T07:38:53;7.90;94.30
26954;DHT22;14508;50.924;11.600;2024-01-25T07:41:21;8.00;94.20
26954;DHT22;14508;50.924;11.600;2024-01-25T07:43:49;7.90;94.30
26954;DHT22;14508;50.924;11.600;2024-01-25T07:46:21;7.90;94.20
26954;DHT22;14508;50.924;11.600;2024-01-25T07:48:50;8.00;94.40
26954;DHT22;14508;50.924;11.600;2024-01-25T07:51:19;7.90;94.50
26954;DHT22;14508;50.924;11.600;2024-01-25T07:53:48;7.90;94.30
26954;DHT22;14508;50.924;11.600;2024-01-25T07:56:16;8.00;93.90
26954;DHT22;14508;50.924;11.600;2024-01-25T07:58:44;8.00;93.70
26954;DHT22;14508;50.924;11.600;2024-01-25T08:01:12;8.00;93.90
26954;DHT22;14508;50.924;11.600;2024-01-25T08:03:42;8.00;94.00
26954;DHT22;14508;50.924;11.600;2024-01-25T08:06:10;8.00;94.20
26954;DHT22;14508;50.924;11.600;2024-01-25T08:08:37;8.00;94.20
26954;DHT22;14508;50.924;11.600;2024-01-25T08:11:07;8.10;94.00
26954;DHT22;14508;50.924;11.600;2024-01-25T08:13:35;8.10;94.00
26954;DHT22;14508;50.924;11.600;2024-01-25T08:16:03;8.10;94.00
26954;DHT22;14508;50.924;11.600;2024-01-25T08:18:32;8.10;94.20
26954;DHT22;14508;50.924;11.600;2024-01-25T08:21:00;8.20;94.00
26954;DHT22;14508;50.924;11.600;2024-01-25T08:23:28;8.20;94.00
26954;DHT22;14508;50.924;11.600;2024-01-25T08:25:56;8.30;93.90
26954;DHT22;14508;50.924;11.600;2024-01-25T08:28:26;8.30;93.80
26954;DHT22;14508;50.924;11.600;2024-01-25T08:30:54;8.30;93.70
26954;DHT22;14508;50.924;11.600;2024-01-25T08:33:22;8.40;93.90
26954;DHT22;14508;50.924;11.600;2024-01-25T08:35:51;8.40;93.90
26954;DHT22;14508;50.924;11.600;2024-01-25T08:38:20;8.40;93.40
26954;DHT22;14508;50.924;11.600;2024-01-25T08:40:48;8.40;93.50
26954;DHT22;14508;50.924;11.600;2024-01-25T08:43:16;8.50;93.50
26954;DHT22;14508;50.924;11.600;2024-01-25T08:45:46;8.50;93.30
26954;DHT22;14508;50.924;11.600;2024-01-25T08:48:14;8.50;93.10
26954;DHT22;14508;50.924;11.600;2024-01-25T08:50:44;8.60;92.80
26954;DHT22;14508;50.924;11.600;2024-01-25T08:53:12;8.70;92.70
26954;DHT22;14508;50.924;11.600;2024-01-25T08:55:40;8.70;92.60
26954;DHT22;14508;50.924;11.600;2024-01-25T08:58:10;8.70;92.30
26954;DHT22;14508;50.924;11.600;2024-01-25T09:00:38;8.70;92.40
26954;DHT22;14508;50.924;11.600;2024-01-25T09:03:08;8.60;92.60
26954;DHT22;14508;50.924;11.600;2024-01-25T09:05:35;8.60;92.90
26954;DHT22;14508;50.924;11.600;2024-01-25T09:08:08;8.50;92.60
26954;DHT22;14508;50.924;11.600;2024-01-25T09:10:36;8.50;92.90
26954;DHT22;14508;50.924;11.600;2024-01-25T09:13:04;8.50;93.30
26954;DHT22;14508;50.924;11.600;2024-01-25T09:15:32;8.50;93.00
26954;DHT22;14508;50.924;11.600;2024-01-25T09:18:00;8.50;93.20
26954;DHT22;14508;50.924;11.600;2024-01-25T09:20:30;8.40;93.20
26954;DHT22;14508;50.924;11.600;2024-01-25T09:22:58;8.30;93.60
26954;DHT22;14508;50.924;11.600;2024-01-25T09:25:26;8.40;93.60
26954;DHT22;14508;50.924;11.600;2024-01-25T09:27:54;8.40;93.60
26954;DHT22;14508;50.924;11.600;2024-01-25T09:30:24;8.40;93.40
26954;DHT22;14508;50.924;11.600;2024-01-25T09:32:53;8.40;93.30
26954;DHT22;14508;50.924;11.600;2024-01-25T09:35:21;8.50;93.40
26954;DHT22;14508;50.924;11.600;2024-01-25T09:37:50;8.50;93.20
26954;DHT22;14508;50.924;11.600;2024-01-25T09:40:20;8.60;92.50
26954;DHT22;14508;50.924;11.600;2024-01-25T09:42:48;8.80;92.10
26954;DHT22;14508;50.924;11.600;2024-01-25T09:45:18;9.00;92.00
26954;DHT22;14508;50.924;11.600;2024-01-25T09:47:47;9.10;90.90
26954;DHT22;14508;50.924;11.600;2024-01-25T09:50:16;9.30;91.20
26954;DHT22;14508;50.924;11.600;2024-01-25T09:52:44;9.40;90.50
26954;DHT22;14508;50.924;11.600;2024-01-25T09:55:17;9.40;89.80
26954;DHT22;14508;50.924;11.600;2024-01-25T09:57:49;9.60;89.00
26954;DHT22;14508;50.924;11.600;2024-01-25T10:00:19;9.70;88.60
26954;DHT22;14508;50.924;11.600;2024-01-25T10:02:47;9.60;87.50
26954;DHT22;14508;50.924;11.600;2024-01-25T10:05:16;9.60;87.50
26954;DHT22;14508;50.924;11.600;2024-01-25T10:07:45;9.60;87.50
26954;DHT22;14508;50.924;11.600;2024-01-25T10:10:14;9.50;86.80
26954;DHT22;14508;50.924;11.600;2024-01-25T10:12:44;9.50;86.70
26954;DHT22;14508;50.924;11.600;2024-01-25T10:15:12;9.40;87.30
26954;DHT22;14508;50.924;11.600;2024-01-25T10:17:40;9.40;88.00
26954;DHT22;14508;50.924;11.600;2024-01-25T10:20:31;9.40;88.40
26954;DHT22;14508;50.924;11.600;2024-01-25T10:22:59;9.30;88.50
26954;DHT22;14508;50.924;11.600;2024-01-25T10:25:28;9.30;88.10
26954;DHT22;14508;50.924;11.600;2024-01-25T10:27:57;9.30;88.20
26954;DHT22;14508;50.924;11.600;2024-01-25T10:30:27;9.40;88.70
26954;DHT22;14508;50.924;11.600;2024-01-25T10:32:59;9.40;88.80
26954;DHT22;14508;50.924;11.600;2024-01-25T10:35:28;9.50;87.90
26954;DHT22;14508;50.924;11.600;2024-01-25T10:37:57;9.40;88.00
26954;DHT22;14508;50.924;11.600;2024-01-25T10:40:26;9.40;88.80
26954;DHT22;14508;50.924;11.600;2024-01-25T10:42:55;9.40;88.90
26954;DHT22;14508;50.924;11.600;2024-01-25T10:45:24;9.40;89.20
26954;DHT22;14508;50.924;11.600;2024-01-25T10:47:53;9.40;89.80
26954;DHT22;14508;50.924;11.600;2024-01-25T10:50:21;9.40;89.40
26954;DHT22;14508;50.924;11.600;2024-01-25T10:52:52;9.40;89.80
26954;DHT22;14508;50.924;11.600;2024-01-25T10:55:20;9.30;90.00
26954;DHT22;14508;50.924;11.600;2024-01-25T10:57:49;9.30;90.20
26954;DHT22;14508;50.924;11.600;2024-01-25T11:00:17;9.30;90.40
26954;DHT22;14508;50.924;11.600;2024-01-25T11:02:47;9.40;90.10
26954;DHT22;14508;50.924;11.600;2024-01-25T11:05:17;9.30;90.00
26954;DHT22;14508;50.924;11.600;2024-01-25T11:07:48;9.40;90.00
26954;DHT22;14508;50.924;11.600;2024-01-25T11:10:18;9.40;90.10
26954;DHT22;14508;50.924;11.600;2024-01-25T11:12:51;9.50;90.10
26954;DHT22;14508;50.924;11.600;2024-01-25T11:15:23;9.50;90.10
26954;DHT22;14508;50.924;11.600;2024-01-25T11:17:54;9.50;88.90
26954;DHT22;14508;50.924;11.600;2024-01-25T11:20:23;9.50;89.20
26954;DHT22;14508;50.924;11.600;2024-01-25T11:22:56;9.50;89.50
26954;DHT22;14508;50.924;11.600;2024-01-25T11:25:27;9.50;89.40
26954;DHT22;14508;50.924;11.600;2024-01-25T11:27:55;9.30;87.30
26954;DHT22;14508;50.924;11.600;2024-01-25T11:30:24;9.20;87.80
26954;DHT22;14508;50.924;11.600;2024-01-25T11:32:54;9.10;89.00
26954;DHT22;14508;50.924;11.600;2024-01-25T11:35:22;9.10;89.50
26954;DHT22;14508;50.924;11.600;2024-01-25T11:37:52;9.10;90.10
26954;DHT22;14508;50.924;11.600;2024-01-25T11:40:20;9.10;90.10
26954;DHT22;14508;50.924;11.600;2024-01-25T11:42:49;9.20;90.30
26954;DHT22;14508;50.924;11.600;2024-01-25T11:45:18;9.30;90.10
26954;DHT22;14508;50.924;11.600;2024-01-25T11:47:46;9.40;90.00
26954;DHT22;14508;50.924;11.600;2024-01-25T11:50:15;9.50;89.70
26954;DHT22;14508;50.924;11.600;2024-01-25T11:52:43;9.50;88.40
26954;DHT22;14508;50.924;11.600;2024-01-25T11:55:11;9.60;88.20
26954;DHT22;14508;50.924;11.600;2024-01-25T11:57:40;9.60;87.80
26954;DHT22;14508;50.924;11.600;2024-01-25T12:00:10;9.60;87.20
26954;DHT22;14508;50.924;11.600;2024-01-25T12:02:40;9.60;87.50
26954;DHT22;14508;50.924;11.600;2024-01-25T12:05:10;9.60;86.70
26954;DHT22;14508;50.924;11.600;2024-01-25T12:07:40;9.60;86.60
26954;DHT22;14508;50.924;11.600;2024-01-25T12:10:15;9.70;86.70
26954;DHT22;14508;50.924;11.600;2024-01-25T12:12:43;9.70;86.10
26954;DHT22;14508;50.924;11.600;2024-01-25T12:15:11;9.70;85.90
26954;DHT22;14508;50.924;11.600;2024-01-25T12:17:39;9.80;85.90
26954;DHT22;14508;50.924;11.600;2024-01-25T12:20:08;9.70;86.20
26954;DHT22;14508;50.924;11.600;2024-01-25T12:22:40;9.70;86.60
26954;DHT22;14508;50.924;11.600;2024-01-25T12:25:09;9.60;85.90
26954;DHT22;14508;50.924;11.600;2024-01-25T12:27:40;9.60;84.80
26954;DHT22;14508;50.924;11.600;2024-01-25T12:30:09;9.60;84.80
26954;DHT22;14508;50.924;11.600;2024-01-25T12:32:37;9.50;84.80
26954;DHT22;14508;50.924;11.600;2024-01-25T12:35:06;9.50;84.40
26954;DHT22;14508;50.924;11.600;2024-01-25T12:37:35;9.50;84.50
26954;DHT22;14508;50.924;11.600;2024-01-25T12:40:06;9.40;85.00
26954;DHT22;14508;50.924;11.600;2024-01-25T12:42:35;9.50;85.00
26954;DHT22;14508;50.924;11.600;2024-01-25T12:45:04;9.40;84.80
26954;DHT22;14508;50.924;11.600;2024-01-25T12:47:33;9.40;84.60
26954;DHT22;14508;50.924;11.600;2024-01-25T12:50:02;9.40;84.80
26954;DHT22;14508;50.924;11.600;2024-01-25T12:52:32;9.30;84.90
26954;DHT22;14508;50.924;11.600;2024-01-25T12:55:00;9.30;85.20
26954;DHT22;14508;50.924;11.600;2024-01-25T12:57:31;9.40;85.40
26954;DHT22;14508;50.924;11.600;2024-01-25T12:59:59;9.40;85.60
26954;DHT22;14508;50.924;11.600;2024-01-25T13:02:28;9.40;85.20
26954;DHT22;14508;50.924;11.600;2024-01-25T13:04:56;9.40;85.00
26954;DHT22;14508;50.924;11.600;2024-01-25T13:07:24;9.40;84.90
26954;DHT22;14508;50.924;11.600;2024-01-25T13:09:52;9.40;84.40
26954;DHT22;14508;50.924;11.600;2024-01-25T13:12:20;9.40;84.10
26954;DHT22;14508;50.924;11.600;2024-01-25T13:14:49;9.50;84.50
26954;DHT22;14508;50.924;11.600;2024-01-25T13:17:17;9.50;84.80
26954;DHT22;14508;50.924;11.600;2024-01-25T13:19:48;9.50;84.10
26954;DHT22;14508;50.924;11.600;2024-01-25T13:22:16;9.40;84.60
26954;DHT22;14508;50.924;11.600;2024-01-25T13:24:47;9.40;84.70
26954;DHT22;14508;50.924;11.600;2024-01-25T13:27:15;9.40;85.00
26954;DHT22;14508;50.924;11.600;2024-01-25T13:29:44;9.30;85.10
26954;DHT22;14508;50.924;11.600;2024-01-25T13:32:13;9.30;85.10
26954;DHT22;14508;50.924;11.600;2024-01-25T13:34:41;9.30;85.30
26954;DHT22;14508;50.924;11.600;2024-01-25T13:37:09;9.30;85.60
26954;DHT22;14508;50.924;11.600;2024-01-25T13:39:37;9.30;85.00
26954;DHT22;14508;50.924;11.600;2024-01-25T13:42:05;9.20;85.10
26954;DHT22;14508;50.924;11.600;2024-01-25T13:44:33;9.20;85.60
26954;DHT22;14508;50.924;11.600;2024-01-25T13:47:01;9.30;86.10
26954;DHT22;14508;50.924;11.600;2024-01-25T13:49:30;9.40;84.90
26954;DHT22;14508;50.924;11.600;2024-01-25T13:52:00;9.40;84.60
26954;DHT22;14508;50.924;11.600;2024-01-25T13:54:28;9.30;84.80
26954;DHT22;14508;50.924;11.600;2024-01-25T13:56:57;9.20;85.10
26954;DHT22;14508;50.924;11.600;2024-01-25T13:59:25;9.20;84.70
26954;DHT22;14508;50.924;11.600;2024-01-25T14:01:53;9.20;84.90
26954;DHT22;14508;50.924;11.600;2024-01-25T14:04:21;9.20;84.60
26954;DHT22;14508;50.924;11.600;2024-01-25T14:06:50;9.10;84.60
26954;DHT22;14508;50.924;11.600;2024-01-25T14:09:19;9.10;84.90
26954;DHT22;14508;50.924;11.600;2024-01-25T14:11:48;9.10;85.20
26954;DHT22;14508;50.924;11.600;2024-01-25T14:14:17;9.10;84.80
26954;DHT22;14508;50.924;11.600;2024-01-25T14:16:45;9.00;84.70
26954;DHT22;14508;50.924;11.600;2024-01-25T14:19:13;9.00;84.60
26954;DHT22;14508;50.924;11.600;2024-01-25T14:21:41;9.00;85.00
26954;DHT22;14508;50.924;11.600;2024-01-25T14:24:13;8.90;85.40
26954;DHT22;14508;50.924;11.600;2024-01-25T14:26:41;8.90;86.00
26954;DHT22;14508;50.924;11.600;2024-01-25T14:29:09;8.90;86.40
26954;DHT22;14508;50.924;11.600;2024-01-25T14:31:38;8.90;86.30
26954;DHT22;14508;50.924;11.600;2024-01-25T14:34:06;8.90;86.00
26954;DHT22;14508;50.924;11.600;2024-01-25T14:36:35;8.90;86.20
26954;DHT22;14508;50.924;11.600;2024-01-25T14:39:04;9.00;85.90
26954;DHT22;14508;50.924;11.600;2024-01-25T14:41:34;9.00;86.00
26954;DHT22;14508;50.924;11.600;2024-01-25T14:44:02;9.00;85.60
26954;DHT22;14508;50.924;11.600;2024-01-25T14:46:30;9.10;85.50
26954;DHT22;14508;50.924;11.600;2024-01-25T14:48:58;9.10;84.90
26954;DHT22;14508;50.924;11.600;2024-01-25T14:51:26;9.10;85.10
26954;DHT22;14508;50.924;11.600;2024-01-25T14:53:54;9.10;84.90
26954;DHT22;14508;50.924;11.600;2024-01-25T14:56:22;9.10;85.00
26954;DHT22;14508;50.924;11.600;2024-01-25T14:58:51;9.10;85.00
26954;DHT22;14508;50.924;11.600;2024-01-25T15:01:19;9.00;85.20
26954;DHT22;14508;50.924;11.600;2024-01-25T15:03:55;8.90;85.70
26954;DHT22;14508;50.924;11.600;2024-01-25T15:06:24;8.90;86.10
26954;DHT22;14508;50.924;11.600;2024-01-25T15:08:53;8.80;86.20
26954;DHT22;14508;50.924;11.600;2024-01-25T15:11:21;8.70;86.70
26954;DHT22;14508;50.924;11.600;2024-01-25T15:13:49;8.60;86.90
26954;DHT22;14508;50.924;11.600;2024-01-25T15:16:19;8.60;87.60
26954;DHT22;14508;50.924;11.600;2024-01-25T15:18:47;8.50;88.20
26954;DHT22;14508;50.924;11.600;2024-01-25T15:21:15;8.40;88.90
26954;DHT22;14508;50.924;11.600;2024-01-25T15:23:43;8.40;89.60
26954;DHT22;14508;50.924;11.600;2024-01-25T15:26:11;8.30;90.10
26954;DHT22;14508;50.924;11.600;2024-01-25T15:28:39;8.30;90.30
26954;DHT22;14508;50.924;11.600;2024-01-25T15:31:07;8.20;90.40
26954;DHT22;14508;50.924;11.600;2024-01-25T15:33:39;8.20;90.40
26954;DHT22;14508;50.924;11.600;2024-01-25T15:36:07;8.10;90.60
26954;DHT22;14508;50.924;11.600;2024-01-25T15:38:35;8.10;90.70